sensor_id;sensor_type;location;lat;lon;timestamp;pressure;altitude;pressure_sealevel;temperature;humidity
50867;BME280;36839;51.946;21.002;2022-08-19T00:00:07;99820.73;;;19.60;100.00
50867;BME280;36839;51.946;21.002;2022-08-19T00:02:43;99818.86;;;19.58;100.00
50867;BME280;36839;51.946;21.002;2022-08-19T00:05:15;99818.70;;;19.54;100.00
50867;BME280;36839;51.946;21.002;2022-08-19T00:07:46;99815.51;;;19.50;100.00
50867;BME280;36839;51.946;21.002;2022-08-19T00:10:17;99814.91;;;19.44;100.00
50867;BME280;36839;51.946;21.002;2022-08-19T00:12:43;99811.70;;;19.39;100.00
50867;BME280;36839;51.946;21.002;2022-08-19T00:15:15;99811.70;;;19.39;100.00
50867;BME280;36839;51.946;21.002;2022-08-19T00:17:48;99815.00;;;19.27;100.00
50867;BME280;36839;51.946;21.002;2022-08-19T00:20:20;99809.58;;;19.22;100.00
50867;BME280;36839;51.946;21.002;2022-08-19T00:22:48;99812.12;;;19.15;100.00
50867;BME280;36839;51.946;21.002;2022-08-19T00:25:16;99804.38;;;19.11;100.00
50867;BME280;36839;51.946;21.002;2022-08-19T00:27:49;99805.88;;;19.09;100.00
50867;BME280;36839;51.946;21.002;2022-08-19T00:30:19;99805.88;;;19.09;100.00
50867;BME280;36839;51.946;21.002;2022-08-19T00:32:46;99810.89;;;19.09;100.00
50867;BME280;36839;51.946;21.002;2022-08-19T00:35:13;99808.67;;;19.09;100.00
50867;BME280;36839;51.946;21.002;2022-08-19T00:37:43;99806.56;;;19.06;100.00
50867;BME280;36839;51.946;21.002;2022-08-19T00:40:12;99810.35;;;19.01;100.00
50867;BME280;36839;51.946;21.002;2022-08-19T00:42:42;99808.00;;;18.97;100.00
50867;BME280;36839;51.946;21.002;2022-08-19T00:45:23;99808.00;;;18.97;100.00
50867;BME280;36839;51.946;21.002;2022-08-19T00:47:44;99814.01;;;18.93;100.00
50867;BME280;36839;51.946;21.002;2022-08-19T00:50:16;99814.01;;;18.93;100.00
50867;BME280;36839;51.946;21.002;2022-08-19T00:52:49;99808.69;;;18.86;100.00
50867;BME280;36839;51.946;21.002;2022-08-19T00:55:21;99806.91;;;18.81;100.00
50867;BME280;36839;51.946;21.002;2022-08-19T00:57:54;99812.37;;;18.77;100.00
50867;BME280;36839;51.946;21.002;2022-08-19T01:00:25;99812.37;;;18.77;100.00
50867;BME280;36839;51.946;21.002;2022-08-19T01:02:52;99813.36;;;18.73;100.00
50867;BME280;36839;51.946;21.002;2022-08-19T01:05:23;99813.36;;;18.73;100.00
50867;BME280;36839;51.946;21.002;2022-08-19T01:07:54;99811.41;;;18.65;100.00
50867;BME280;36839;51.946;21.002;2022-08-19T01:10:25;99811.41;;;18.65;100.00
50867;BME280;36839;51.946;21.002;2022-08-19T01:12:56;99813.21;;;18.61;100.00
50867;BME280;36839;51.946;21.002;2022-08-19T01:15:27;99814.44;;;18.57;100.00
50867;BME280;36839;51.946;21.002;2022-08-19T01:17:54;99816.17;;;18.55;100.00
50867;BME280;36839;51.946;21.002;2022-08-19T01:20:23;99815.93;;;18.54;100.00
50867;BME280;36839;51.946;21.002;2022-08-19T01:22:57;99821.38;;;18.51;100.00
50867;BME280;36839;51.946;21.002;2022-08-19T01:25:48;99814.80;;;18.47;100.00
50867;BME280;36839;51.946;21.002;2022-08-19T01:28:20;99815.38;;;18.46;100.00
50867;BME280;36839;51.946;21.002;2022-08-19T01:30:47;99824.58;;;18.47;100.00
50867;BME280;36839;51.946;21.002;2022-08-19T01:33:14;99820.39;;;18.47;100.00
50867;BME280;36839;51.946;21.002;2022-08-19T01:35:42;99817.34;;;18.46;100.00
50867;BME280;36839;51.946;21.002;2022-08-19T01:38:19;99818.27;;;18.44;100.00
50867;BME280;36839;51.946;21.002;2022-08-19T01:40:39;99814.41;;;18.42;100.00
50867;BME280;36839;51.946;21.002;2022-08-19T01:43:08;99817.55;;;18.41;100.00
50867;BME280;36839;51.946;21.002;2022-08-19T01:45:37;99817.55;;;18.41;100.00
50867;BME280;36839;51.946;21.002;2022-08-19T01:48:08;99811.53;;;18.36;100.00
50867;BME280;36839;51.946;21.002;2022-08-19T01:50:38;99810.13;;;18.36;100.00
50867;BME280;36839;51.946;21.002;2022-08-19T01:53:09;99800.45;;;18.34;100.00
50867;BME280;36839;51.946;21.002;2022-08-19T01:55:42;99799.72;;;18.31;100.00
50867;BME280;36839;51.946;21.002;2022-08-19T01:58:14;99806.20;;;18.28;100.00
50867;BME280;36839;51.946;21.002;2022-08-19T02:00:42;99803.40;;;18.28;100.00
50867;BME280;36839;51.946;21.002;2022-08-19T02:03:13;99803.67;;;18.30;100.00
50867;BME280;36839;51.946;21.002;2022-08-19T02:05:43;99805.07;;;18.30;100.00
50867;BME280;36839;51.946;21.002;2022-08-19T02:08:12;99803.09;;;18.30;100.00
50867;BME280;36839;51.946;21.002;2022-08-19T02:10:41;99795.20;;;18.23;100.00
50867;BME280;36839;51.946;21.002;2022-08-19T02:13:12;99795.20;;;18.23;100.00
50867;BME280;36839;51.946;21.002;2022-08-19T02:15:41;99799.73;;;18.22;100.00
50867;BME280;36839;51.946;21.002;2022-08-19T02:18:13;99793.81;;;18.23;100.00
50867;BME280;36839;51.946;21.002;2022-08-19T02:20:41;99791.50;;;18.25;100.00
50867;BME280;36839;51.946;21.002;2022-08-19T02:23:11;99790.82;;;18.28;100.00
50867;BME280;36839;51.946;21.002;2022-08-19T02:25:38;99790.82;;;18.28;100.00
50867;BME280;36839;51.946;21.002;2022-08-19T02:28:11;99791.91;;;18.30;100.00
50867;BME280;36839;51.946;21.002;2022-08-19T02:30:41;99791.00;;;18.32;100.00
50867;BME280;36839;51.946;21.002;2022-08-19T02:33:11;99789.50;;;18.35;100.00
50867;BME280;36839;51.946;21.002;2022-08-19T02:35:43;99795.91;;;18.35;100.00
50867;BME280;36839;51.946;21.002;2022-08-19T02:38:12;99792.30;;;18.35;100.00
50867;BME280;36839;51.946;21.002;2022-08-19T02:41:03;99787.14;;;18.31;100.00
50867;BME280;36839;51.946;21.002;2022-08-19T02:43:33;99793.89;;;18.30;100.00
50867;BME280;36839;51.946;21.002;2022-08-19T02:46:18;99795.69;;;18.25;100.00
50867;BME280;36839;51.946;21.002;2022-08-19T02:48:48;99794.72;;;18.21;100.00
50867;BME280;36839;51.946;21.002;2022-08-19T02:51:21;99789.77;;;18.18;100.00
50867;BME280;36839;51.946;21.002;2022-08-19T02:53:52;99789.77;;;18.18;100.00
50867;BME280;36839;51.946;21.002;2022-08-19T02:56:19;99785.58;;;18.18;100.00
50867;BME280;36839;51.946;21.002;2022-08-19T02:58:51;99785.58;;;18.18;100.00
50867;BME280;36839;51.946;21.002;2022-08-19T03:01:22;99790.59;;;18.19;100.00
50867;BME280;36839;51.946;21.002;2022-08-19T03:03:52;99797.67;;;18.16;100.00
50867;BME280;36839;51.946;21.002;2022-08-19T03:06:20;99788.33;;;18.12;100.00
50867;BME280;36839;51.946;21.002;2022-08-19T03:08:48;99792.34;;;18.09;100.00
50867;BME280;36839;51.946;21.002;2022-08-19T03:11:23;99787.66;;;18.07;100.00
50867;BME280;36839;51.946;21.002;2022-08-19T03:13:49;99787.66;;;18.07;100.00
50867;BME280;36839;51.946;21.002;2022-08-19T03:16:19;99784.96;;;18.04;100.00
50867;BME280;36839;51.946;21.002;2022-08-19T03:18:51;99788.81;;;18.06;100.00
50867;BME280;36839;51.946;21.002;2022-08-19T03:21:22;99794.31;;;18.08;100.00
50867;BME280;36839;51.946;21.002;2022-08-19T03:24:02;99789.78;;;18.10;100.00
50867;BME280;36839;51.946;21.002;2022-08-19T03:26:26;99788.80;;;18.14;100.00
50867;BME280;36839;51.946;21.002;2022-08-19T03:28:56;99792.56;;;18.18;100.00
50867;BME280;36839;51.946;21.002;2022-08-19T03:31:26;99791.11;;;18.21;100.00
50867;BME280;36839;51.946;21.002;2022-08-19T03:33:55;99796.60;;;18.23;100.00
50867;BME280;36839;51.946;21.002;2022-08-19T03:36:24;99787.64;;;18.24;100.00
50867;BME280;36839;51.946;21.002;2022-08-19T03:38:57;99787.64;;;18.24;100.00
50867;BME280;36839;51.946;21.002;2022-08-19T03:41:29;99792.75;;;18.22;100.00
50867;BME280;36839;51.946;21.002;2022-08-19T03:44:02;99801.95;;;18.22;100.00
50867;BME280;36839;51.946;21.002;2022-08-19T03:46:31;99804.75;;;18.22;100.00
50867;BME280;36839;51.946;21.002;2022-08-19T03:49:04;99804.75;;;18.22;100.00
50867;BME280;36839;51.946;21.002;2022-08-19T03:51:36;99802.58;;;18.28;100.00
50867;BME280;36839;51.946;21.002;2022-08-19T03:54:07;99802.86;;;18.29;100.00
50867;BME280;36839;51.946;21.002;2022-08-19T03:56:36;99798.91;;;18.30;100.00
50867;BME280;36839;51.946;21.002;2022-08-19T03:59:07;99798.91;;;18.30;100.00
50867;BME280;36839;51.946;21.002;2022-08-19T04:01:35;99796.91;;;18.39;100.00
50867;BME280;36839;51.946;21.002;2022-08-19T04:04:02;99785.28;;;18.43;100.00
50867;BME280;36839;51.946;21.002;2022-08-19T04:06:35;99795.80;;;18.46;100.00
50867;BME280;36839;51.946;21.002;2022-08-19T04:09:08;99795.80;;;18.46;100.00
50867;BME280;36839;51.946;21.002;2022-08-19T04:11:38;99789.53;;;18.58;100.00
50867;BME280;36839;51.946;21.002;2022-08-19T04:14:13;99784.76;;;18.67;100.00
50867;BME280;36839;51.946;21.002;2022-08-19T04:16:42;99784.76;;;18.67;100.00
50867;BME280;36839;51.946;21.002;2022-08-19T04:19:15;99779.03;;;18.78;100.00
50867;BME280;36839;51.946;21.002;2022-08-19T04:21:47;99783.05;;;18.98;100.00
50867;BME280;36839;51.946;21.002;2022-08-19T04:24:15;99793.14;;;19.05;100.00
50867;BME280;36839;51.946;21.002;2022-08-19T04:26:44;99792.94;;;19.10;100.00
50867;BME280;36839;51.946;21.002;2022-08-19T04:29:15;99796.61;;;19.17;100.00
50867;BME280;36839;51.946;21.002;2022-08-19T04:31:45;99802.41;;;19.27;100.00
50867;BME280;36839;51.946;21.002;2022-08-19T04:34:17;99795.64;;;19.28;100.00
50867;BME280;36839;51.946;21.002;2022-08-19T04:36:52;99804.57;;;19.36;100.00
50867;BME280;36839;51.946;21.002;2022-08-19T04:39:23;99801.42;;;19.37;100.00
50867;BME280;36839;51.946;21.002;2022-08-19T04:41:51;99806.50;;;19.44;100.00
50867;BME280;36839;51.946;21.002;2022-08-19T04:44:36;99803.48;;;19.49;100.00
50867;BME280;36839;51.946;21.002;2022-08-19T04:47:05;99803.48;;;19.49;100.00
50867;BME280;36839;51.946;21.002;2022-08-19T04:49:32;99801.36;;;19.61;100.00
50867;BME280;36839;51.946;21.002;2022-08-19T04:52:02;99808.41;;;19.67;100.00
50867;BME280;36839;51.946;21.002;2022-08-19T04:54:32;99808.41;;;19.67;100.00
50867;BME280;36839;51.946;21.002;2022-08-19T04:56:59;99810.70;;;19.80;100.00
50867;BME280;36839;51.946;21.002;2022-08-19T04:59:29;99815.88;;;19.84;100.00
50867;BME280;36839;51.946;21.002;2022-08-19T05:02:02;99812.38;;;19.87;100.00
50867;BME280;36839;51.946;21.002;2022-08-19T05:04:28;99818.37;;;19.91;100.00
50867;BME280;36839;51.946;21.002;2022-08-19T05:06:58;99813.70;;;19.95;100.00
50867;BME280;36839;51.946;21.002;2022-08-19T05:09:25;99815.73;;;20.01;100.00
50867;BME280;36839;51.946;21.002;2022-08-19T05:11:55;99818.55;;;20.07;100.00
50867;BME280;36839;51.946;21.002;2022-08-19T05:14:23;99815.78;;;20.13;100.00
50867;BME280;36839;51.946;21.002;2022-08-19T05:16:53;99821.66;;;20.20;100.00
50867;BME280;36839;51.946;21.002;2022-08-19T05:19:22;99824.70;;;20.28;100.00
50867;BME280;36839;51.946;21.002;2022-08-19T05:22:07;99821.72;;;20.39;100.00
50867;BME280;36839;51.946;21.002;2022-08-19T05:24:52;99827.86;;;20.53;100.00
50867;BME280;36839;51.946;21.002;2022-08-19T05:27:23;99819.00;;;20.63;100.00
50867;BME280;36839;51.946;21.002;2022-08-19T05:29:49;99819.59;;;20.75;100.00
50867;BME280;36839;51.946;21.002;2022-08-19T05:32:16;99819.84;;;20.82;100.00
50867;BME280;36839;51.946;21.002;2022-08-19T05:34:44;99828.75;;;20.90;100.00
50867;BME280;36839;51.946;21.002;2022-08-19T05:37:11;99827.02;;;20.98;100.00
50867;BME280;36839;51.946;21.002;2022-08-19T05:39:41;99827.59;;;21.03;100.00
50867;BME280;36839;51.946;21.002;2022-08-19T05:42:13;99829.23;;;21.10;100.00
50867;BME280;36839;51.946;21.002;2022-08-19T05:44:46;99829.23;;;21.10;100.00
50867;BME280;36839;51.946;21.002;2022-08-19T05:47:15;99825.51;;;21.25;100.00
50867;BME280;36839;51.946;21.002;2022-08-19T05:49:46;99816.86;;;21.30;100.00
50867;BME280;36839;51.946;21.002;2022-08-19T05:52:17;99808.77;;;21.41;100.00
50867;BME280;36839;51.946;21.002;2022-08-19T05:54:45;99802.56;;;21.53;100.00
50867;BME280;36839;51.946;21.002;2022-08-19T05:57:14;99806.16;;;21.72;100.00
50867;BME280;36839;51.946;21.002;2022-08-19T05:59:44;99805.63;;;21.88;100.00
50867;BME280;36839;51.946;21.002;2022-08-19T06:02:13;99807.46;;;22.03;100.00
50867;BME280;36839;51.946;21.002;2022-08-19T06:04:43;99810.84;;;22.14;100.00
50867;BME280;36839;51.946;21.002;2022-08-19T06:07:11;99810.37;;;22.18;100.00
50867;BME280;36839;51.946;21.002;2022-08-19T06:09:40;99812.45;;;22.21;100.00
50867;BME280;36839;51.946;21.002;2022-08-19T06:12:08;99820.40;;;22.26;100.00
50867;BME280;36839;51.946;21.002;2022-08-19T06:14:38;99819.56;;;22.31;100.00
50867;BME280;36839;51.946;21.002;2022-08-19T06:17:08;99819.56;;;22.31;100.00
50867;BME280;36839;51.946;21.002;2022-08-19T06:19:37;99831.09;;;22.48;100.00
50867;BME280;36839;51.946;21.002;2022-08-19T06:22:08;99831.63;;;22.53;100.00
50867;BME280;36839;51.946;21.002;2022-08-19T06:24:39;99832.66;;;22.61;100.00
50867;BME280;36839;51.946;21.002;2022-08-19T06:27:09;99832.66;;;22.61;100.00
50867;BME280;36839;51.946;21.002;2022-08-19T06:29:36;99834.71;;;22.70;100.00
50867;BME280;36839;51.946;21.002;2022-08-19T06:32:03;99841.95;;;22.77;100.00
50867;BME280;36839;51.946;21.002;2022-08-19T06:34:32;99840.26;;;22.83;100.00
50867;BME280;36839;51.946;21.002;2022-08-19T06:37:02;99834.41;;;22.88;100.00
50867;BME280;36839;51.946;21.002;2022-08-19T06:39:34;99835.78;;;22.94;100.00
50867;BME280;36839;51.946;21.002;2022-08-19T06:42:04;99838.76;;;23.01;100.00
50867;BME280;36839;51.946;21.002;2022-08-19T06:44:38;99847.48;;;23.12;100.00
50867;BME280;36839;51.946;21.002;2022-08-19T06:47:10;99841.63;;;23.26;100.00
50867;BME280;36839;51.946;21.002;2022-08-19T06:49:38;99830.23;;;23.38;100.00
50867;BME280;36839;51.946;21.002;2022-08-19T06:52:05;99834.81;;;23.53;100.00
50867;BME280;36839;51.946;21.002;2022-08-19T06:54:33;99834.79;;;23.69;100.00
50867;BME280;36839;51.946;21.002;2022-08-19T06:57:04;99834.79;;;23.69;100.00
50867;BME280;36839;51.946;21.002;2022-08-19T06:59:34;99837.91;;;23.99;98.63
50867;BME280;36839;51.946;21.002;2022-08-19T07:02:06;99844.44;;;24.12;97.96
50867;BME280;36839;51.946;21.002;2022-08-19T07:04:35;99844.44;;;24.12;97.96
50867;BME280;36839;51.946;21.002;2022-08-19T07:07:08;99839.85;;;24.33;96.16
50867;BME280;36839;51.946;21.002;2022-08-19T07:09:42;99845.80;;;24.47;97.02
50867;BME280;36839;51.946;21.002;2022-08-19T07:12:15;99837.75;;;24.59;95.37
50867;BME280;36839;51.946;21.002;2022-08-19T07:14:43;99841.80;;;24.71;95.13
50867;BME280;36839;51.946;21.002;2022-08-19T07:17:12;99836.60;;;24.83;93.85
50867;BME280;36839;51.946;21.002;2022-08-19T07:19:42;99836.60;;;24.83;93.85
50867;BME280;36839;51.946;21.002;2022-08-19T07:22:10;99834.34;;;25.02;90.94
50867;BME280;36839;51.946;21.002;2022-08-19T07:24:38;99829.30;;;25.15;92.27
50867;BME280;36839;51.946;21.002;2022-08-19T07:27:06;99825.45;;;25.26;91.19
50867;BME280;36839;51.946;21.002;2022-08-19T07:29:36;99828.66;;;25.38;89.13
50867;BME280;36839;51.946;21.002;2022-08-19T07:32:06;99828.66;;;25.38;89.13
50867;BME280;36839;51.946;21.002;2022-08-19T07:34:35;99826.55;;;25.58;87.29
50867;BME280;36839;51.946;21.002;2022-08-19T07:37:05;99826.63;;;25.75;89.47
50867;BME280;36839;51.946;21.002;2022-08-19T07:39:36;99838.55;;;25.87;87.52
50867;BME280;36839;51.946;21.002;2022-08-19T07:42:07;99834.83;;;25.97;85.48
50867;BME280;36839;51.946;21.002;2022-08-19T07:44:35;99831.33;;;26.07;86.49
50867;BME280;36839;51.946;21.002;2022-08-19T07:47:07;99832.45;;;26.15;86.12
50867;BME280;36839;51.946;21.002;2022-08-19T07:49:35;99836.02;;;26.26;84.12
50867;BME280;36839;51.946;21.002;2022-08-19T07:52:08;99829.15;;;26.27;82.12
50867;BME280;36839;51.946;21.002;2022-08-19T07:54:38;99833.03;;;26.32;82.72
50867;BME280;36839;51.946;21.002;2022-08-19T07:57:07;99833.03;;;26.32;82.72
50867;BME280;36839;51.946;21.002;2022-08-19T07:59:37;99822.97;;;26.51;83.91
50867;BME280;36839;51.946;21.002;2022-08-19T08:02:05;99821.13;;;26.66;83.62
50867;BME280;36839;51.946;21.002;2022-08-19T08:04:33;99821.13;;;26.66;83.62
50867;BME280;36839;51.946;21.002;2022-08-19T08:07:20;99826.89;;;26.97;83.21
50867;BME280;36839;51.946;21.002;2022-08-19T08:10:07;99825.99;;;27.06;82.45
50867;BME280;36839;51.946;21.002;2022-08-19T08:12:37;99828.69;;;27.12;80.76
50867;BME280;36839;51.946;21.002;2022-08-19T08:15:12;99828.69;;;27.12;80.76
50867;BME280;36839;51.946;21.002;2022-08-19T08:17:44;99827.30;;;27.40;79.74
50867;BME280;36839;51.946;21.002;2022-08-19T08:20:13;99825.95;;;27.50;78.24
50867;BME280;36839;51.946;21.002;2022-08-19T08:22:47;99828.05;;;27.60;77.62
50867;BME280;36839;51.946;21.002;2022-08-19T08:25:34;99827.17;;;27.77;80.35
50867;BME280;36839;51.946;21.002;2022-08-19T08:28:04;99825.37;;;27.85;78.51
50867;BME280;36839;51.946;21.002;2022-08-19T08:30:31;99830.33;;;27.96;77.17
50867;BME280;36839;51.946;21.002;2022-08-19T08:33:04;99830.33;;;27.96;77.17
50867;BME280;36839;51.946;21.002;2022-08-19T08:35:35;99831.20;;;28.14;74.66
50867;BME280;36839;51.946;21.002;2022-08-19T08:38:02;99836.72;;;28.24;75.32
50867;BME280;36839;51.946;21.002;2022-08-19T08:40:50;99833.53;;;28.29;72.95
50867;BME280;36839;51.946;21.002;2022-08-19T08:43:34;99832.89;;;28.26;70.61
50867;BME280;36839;51.946;21.002;2022-08-19T08:51:27;99831.71;;;28.30;71.56
50867;BME280;36839;51.946;21.002;2022-08-19T08:53:57;99842.33;;;28.44;70.91
50867;BME280;36839;51.946;21.002;2022-08-19T08:56:26;99837.87;;;28.47;69.72
50867;BME280;36839;51.946;21.002;2022-08-19T08:59:03;99842.77;;;28.57;69.10
50867;BME280;36839;51.946;21.002;2022-08-19T09:01:31;99840.50;;;28.49;68.28
50867;BME280;36839;51.946;21.002;2022-08-19T09:04:03;99841.52;;;28.51;68.32
50867;BME280;36839;51.946;21.002;2022-08-19T09:06:53;99840.50;;;28.49;67.23
50867;BME280;36839;51.946;21.002;2022-08-19T09:09:30;99842.77;;;28.60;69.68
50867;BME280;36839;51.946;21.002;2022-08-19T09:14:57;99852.38;;;28.83;68.83
50867;BME280;36839;51.946;21.002;2022-08-19T09:17:25;99865.63;;;28.96;69.84
50867;BME280;36839;51.946;21.002;2022-08-19T09:20:14;99861.38;;;29.07;67.35
50867;BME280;36839;51.946;21.002;2022-08-19T09:22:39;99865.86;;;29.11;67.37
50867;BME280;36839;51.946;21.002;2022-08-19T09:25:08;99864.63;;;29.16;67.43
50867;BME280;36839;51.946;21.002;2022-08-19T09:27:42;99864.63;;;29.16;67.43
50867;BME280;36839;51.946;21.002;2022-08-19T09:30:14;99868.52;;;29.32;66.08
50867;BME280;36839;51.946;21.002;2022-08-19T09:32:45;99869.33;;;29.39;67.02
50867;BME280;36839;51.946;21.002;2022-08-19T09:35:15;99863.03;;;29.40;66.50
50867;BME280;36839;51.946;21.002;2022-08-19T09:37:43;99868.70;;;29.43;65.75
50867;BME280;36839;51.946;21.002;2022-08-19T09:40:13;99873.63;;;29.50;65.58
50867;BME280;36839;51.946;21.002;2022-08-19T09:42:43;99876.25;;;29.52;65.14
50867;BME280;36839;51.946;21.002;2022-08-19T09:45:19;99876.25;;;29.52;65.14
50867;BME280;36839;51.946;21.002;2022-08-19T09:47:43;99868.30;;;29.73;65.60
50867;BME280;36839;51.946;21.002;2022-08-19T09:50:14;99859.73;;;29.84;65.71
50867;BME280;36839;51.946;21.002;2022-08-19T09:52:46;99856.87;;;29.98;66.01
50867;BME280;36839;51.946;21.002;2022-08-19T09:55:13;99858.09;;;30.08;63.79
50867;BME280;36839;51.946;21.002;2022-08-19T09:57:43;99855.03;;;30.14;62.59
50867;BME280;36839;51.946;21.002;2022-08-19T10:00:13;99856.02;;;30.19;64.46
50867;BME280;36839;51.946;21.002;2022-08-19T10:02:41;99855.59;;;30.21;61.95
50867;BME280;36839;51.946;21.002;2022-08-19T10:05:09;99845.44;;;30.23;62.76
50867;BME280;36839;51.946;21.002;2022-08-19T10:07:56;99850.86;;;30.36;63.72
50867;BME280;36839;51.946;21.002;2022-08-19T10:10:23;99853.91;;;30.37;61.76
50867;BME280;36839;51.946;21.002;2022-08-19T10:12:51;99852.06;;;30.39;60.80
50867;BME280;36839;51.946;21.002;2022-08-19T10:15:21;99850.23;;;30.44;62.52
50867;BME280;36839;51.946;21.002;2022-08-19T10:17:47;99845.08;;;30.54;63.09
50867;BME280;36839;51.946;21.002;2022-08-19T10:20:17;99842.40;;;30.66;60.79
50867;BME280;36839;51.946;21.002;2022-08-19T10:22:49;99842.40;;;30.66;60.79
50867;BME280;36839;51.946;21.002;2022-08-19T10:25:16;99838.05;;;30.80;60.95
50867;BME280;36839;51.946;21.002;2022-08-19T10:27:44;99839.79;;;30.93;60.06
50867;BME280;36839;51.946;21.002;2022-08-19T10:30:13;99842.95;;;31.06;59.20
50867;BME280;36839;51.946;21.002;2022-08-19T10:32:41;99834.15;;;31.12;57.56
50867;BME280;36839;51.946;21.002;2022-08-19T10:35:09;99838.39;;;31.15;57.32
50867;BME280;36839;51.946;21.002;2022-08-19T10:37:38;99843.69;;;31.20;59.58
50867;BME280;36839;51.946;21.002;2022-08-19T10:40:08;99842.45;;;31.21;57.30
50867;BME280;36839;51.946;21.002;2022-08-19T10:42:38;99844.80;;;31.34;58.97
50867;BME280;36839;51.946;21.002;2022-08-19T10:45:07;99845.41;;;31.37;57.31
50867;BME280;36839;51.946;21.002;2022-08-19T10:47:35;99845.51;;;31.45;59.72
50867;BME280;36839;51.946;21.002;2022-08-19T10:50:05;99845.51;;;31.45;59.72
50867;BME280;36839;51.946;21.002;2022-08-19T10:52:54;99834.09;;;31.45;57.87
50867;BME280;36839;51.946;21.002;2022-08-19T10:55:24;99845.98;;;31.40;56.86
50867;BME280;36839;51.946;21.002;2022-08-19T10:58:14;99845.98;;;31.40;56.86
50867;BME280;36839;51.946;21.002;2022-08-19T11:00:41;99836.89;;;31.52;57.19
50867;BME280;36839;51.946;21.002;2022-08-19T11:03:14;99836.89;;;31.52;57.19
50867;BME280;36839;51.946;21.002;2022-08-19T11:05:45;99834.59;;;31.59;59.29
50867;BME280;36839;51.946;21.002;2022-08-19T11:08:14;99822.50;;;31.63;56.41
50867;BME280;36839;51.946;21.002;2022-08-19T11:10:43;99820.82;;;31.69;55.47
50867;BME280;36839;51.946;21.002;2022-08-19T11:13:10;99820.55;;;31.78;55.18
50867;BME280;36839;51.946;21.002;2022-08-19T11:15:41;99809.19;;;31.90;57.27
50867;BME280;36839;51.946;21.002;2022-08-19T11:18:08;99825.69;;;31.94;55.54
50867;BME280;36839;51.946;21.002;2022-08-19T11:20:36;99820.03;;;32.06;55.38
50867;BME280;36839;51.946;21.002;2022-08-19T11:23:06;99820.03;;;32.06;55.38
50867;BME280;36839;51.946;21.002;2022-08-19T11:25:38;99813.75;;;32.18;55.42
50867;BME280;36839;51.946;21.002;2022-08-19T11:28:11;99808.89;;;32.34;55.50
50867;BME280;36839;51.946;21.002;2022-08-19T11:30:41;99801.79;;;32.46;53.74
50867;BME280;36839;51.946;21.002;2022-08-19T11:33:08;99805.48;;;32.58;54.50
50867;BME280;36839;51.946;21.002;2022-08-19T11:35:40;99808.47;;;32.51;52.65
50867;BME280;36839;51.946;21.002;2022-08-19T11:38:09;99800.02;;;32.55;52.31
50867;BME280;36839;51.946;21.002;2022-08-19T11:40:37;99800.02;;;32.55;52.31
50867;BME280;36839;51.946;21.002;2022-08-19T11:43:07;99803.25;;;32.57;52.22
50867;BME280;36839;51.946;21.002;2022-08-19T11:45:38;99801.56;;;32.75;54.75
50867;BME280;36839;51.946;21.002;2022-08-19T11:48:05;99795.55;;;32.81;52.51
50867;BME280;36839;51.946;21.002;2022-08-19T11:50:31;99795.55;;;32.81;52.51
50867;BME280;36839;51.946;21.002;2022-08-19T11:52:59;99783.69;;;32.67;52.13
50867;BME280;36839;51.946;21.002;2022-08-19T11:55:29;99783.88;;;32.68;53.10
50867;BME280;36839;51.946;21.002;2022-08-19T11:57:59;99780.83;;;32.67;50.23
50867;BME280;36839;51.946;21.002;2022-08-19T12:00:27;99777.40;;;32.80;51.11
50867;BME280;36839;51.946;21.002;2022-08-19T12:02:56;99772.02;;;32.85;52.03
50867;BME280;36839;51.946;21.002;2022-08-19T12:05:28;99767.87;;;32.90;51.72
50867;BME280;36839;51.946;21.002;2022-08-19T12:07:56;99765.67;;;32.98;52.27
50867;BME280;36839;51.946;21.002;2022-08-19T12:10:23;99768.42;;;32.93;48.70
50867;BME280;36839;51.946;21.002;2022-08-19T12:12:50;99765.95;;;32.80;48.50
50867;BME280;36839;51.946;21.002;2022-08-19T12:15:23;99766.77;;;32.80;48.41
50867;BME280;36839;51.946;21.002;2022-08-19T12:17:52;99766.77;;;32.80;48.41
50867;BME280;36839;51.946;21.002;2022-08-19T12:20:23;99768.81;;;32.80;49.46
50867;BME280;36839;51.946;21.002;2022-08-19T12:22:50;99760.20;;;32.83;50.65
50867;BME280;36839;51.946;21.002;2022-08-19T12:25:19;99752.61;;;32.96;49.97
50867;BME280;36839;51.946;21.002;2022-08-19T12:27:48;99752.45;;;33.07;49.86
50867;BME280;36839;51.946;21.002;2022-08-19T12:30:17;99754.48;;;33.07;49.31
50867;BME280;36839;51.946;21.002;2022-08-19T12:32:48;99753.19;;;33.23;50.68
50867;BME280;36839;51.946;21.002;2022-08-19T12:35:18;99753.19;;;33.23;50.68
50867;BME280;36839;51.946;21.002;2022-08-19T12:37:52;99747.02;;;33.24;50.78
50867;BME280;36839;51.946;21.002;2022-08-19T12:40:20;99743.79;;;33.22;49.24
50867;BME280;36839;51.946;21.002;2022-08-19T12:42:48;99742.31;;;33.26;47.45
50867;BME280;36839;51.946;21.002;2022-08-19T12:45:18;99742.31;;;33.26;47.45
50867;BME280;36839;51.946;21.002;2022-08-19T12:47:49;99739.11;;;33.32;46.56
50867;BME280;36839;51.946;21.002;2022-08-19T12:50:16;99739.11;;;33.32;46.56
50867;BME280;36839;51.946;21.002;2022-08-19T12:52:42;99728.38;;;33.40;45.52
50867;BME280;36839;51.946;21.002;2022-08-19T12:55:10;99728.38;;;33.40;45.52
50867;BME280;36839;51.946;21.002;2022-08-19T12:57:38;99731.58;;;33.65;45.79
50867;BME280;36839;51.946;21.002;2022-08-19T13:00:08;99731.63;;;33.62;45.43
50867;BME280;36839;51.946;21.002;2022-08-19T13:02:42;99731.63;;;33.62;45.43
50867;BME280;36839;51.946;21.002;2022-08-19T13:05:16;99729.80;;;33.71;45.82
50867;BME280;36839;51.946;21.002;2022-08-19T13:07:46;99733.69;;;33.81;45.45
50867;BME280;36839;51.946;21.002;2022-08-19T13:10:16;99731.27;;;33.79;44.83